Time;durP1;ratioP1;P1;durP2;ratioP2;P2;SDS_P1;SDS_P2;PMS_P1;PMS_P2;Temp;Humidity;BMP_temperature;BMP_pressure;BME280_temperature;BME280_humidity;BME280_pressure;Samples;Min_cycle;Max_cycle;Signal;HPM_P1;HPM_P2
2022/01/13 00:02:28;;;;;;;44.87;24.97;;;;;;;;;;5071037;28;20964;-59
2022/01/13 00:04:54;;;;;;;42.10;24.20;;;;;;;;;;5071368;28;20920;-60
2022/01/13 00:07:20;;;;;;;40.30;24.83;;;;;;;;;;5071314;28;20443;-60
2022/01/13 00:09:45;;;;;;;44.77;24.33;;;;;;;;;;5071096;28;20208;-60
2022/01/13 00:12:13;;;;;;;38.60;24.33;;;;;;;;;;5071073;28;20231;-59
2022/01/13 00:14:54;;;;;;;42.97;24.27;;;;;;;;;;5073186;28;20290;-59
2022/01/13 00:17:33;;;;;;;46.53;25.97;;;;;;;;;;5074801;28;20524;-62
2022/01/13 00:23:39;;;;;;;45.37;24.70;;;;;;;;;;5074583;28;20473;-63
2022/01/13 00:25:37;;;;;;;43.57;24.60;;;;;;;;;;5074380;28;20434;-62
2022/01/13 00:28:12;;;;;;;47.37;26.00;;;;;;;;;;5074676;28;20438;-63
2022/01/13 00:30:38;;;;;;;42.23;24.57;;;;;;;;;;5074448;28;20516;-63
2022/01/13 00:33:04;;;;;;;40.00;24.03;;;;;;;;;;5074410;28;20426;-63
2022/01/13 00:35:31;;;;;;;41.23;24.73;;;;;;;;;;5074513;28;20434;-63
2022/01/13 00:37:57;;;;;;;44.17;25.07;;;;;;;;;;5074298;28;20195;-62
2022/01/13 00:40:23;;;;;;;41.43;24.13;;;;;;;;;;5074430;28;20438;-62
2022/01/13 00:42:49;;;;;;;43.43;24.97;;;;;;;;;;5074108;28;20211;-59
2022/01/13 00:45:16;;;;;;;41.77;23.70;;;;;;;;;;5074432;28;20856;-67
2022/01/13 00:47:43;;;;;;;42.47;23.23;;;;;;;;;;5074008;28;20935;-66
2022/01/13 00:50:10;;;;;;;43.50;24.70;;;;;;;;;;5074177;28;20469;-66
2022/01/13 00:52:37;;;;;;;44.57;23.67;;;;;;;;;;5074074;28;20458;-65
2022/01/13 00:55:07;;;;;;;48.30;25.00;;;;;;;;;;5074039;28;20493;-66
2022/01/13 00:57:33;;;;;;;44.70;23.80;;;;;;;;;;5074103;28;20483;-66
2022/01/13 00:59:59;;;;;;;47.00;25.10;;;;;;;;;;5073967;28;20444;-66
2022/01/13 01:02:25;;;;;;;44.67;24.13;;;;;;;;;;5073884;28;20469;-66
2022/01/13 01:04:51;;;;;;;47.33;24.33;;;;;;;;;;5073755;28;21259;-66
2022/01/13 01:07:17;;;;;;;43.63;24.67;;;;;;;;;;5073846;28;20463;-66
2022/01/13 01:09:49;;;;;;;42.83;23.73;;;;;;;;;;5073541;28;20188;-67
2022/01/13 01:12:16;;;;;;;48.37;24.80;;;;;;;;;;5073722;28;20345;-67
2022/01/13 01:14:47;;;;;;;46.20;25.90;;;;;;;;;;5073169;28;20426;-66
2022/01/13 01:17:16;;;;;;;50.60;26.13;;;;;;;;;;5073658;28;20444;-66
2022/01/13 01:19:44;;;;;;;45.10;23.53;;;;;;;;;;5073462;28;20434;-66
2022/01/13 01:22:33;;;;;;;44.23;24.57;;;;;;;;;;5073418;28;20441;-67
2022/01/13 01:27:38;;;;;;;45.27;25.50;;;;;;;;;;5073461;28;20959;-66
2022/01/13 01:32:49;;;;;;;51.13;25.73;;;;;;;;;;5073319;28;20926;-67
2022/01/13 01:35:17;;;;;;;52.50;26.47;;;;;;;;;;5073412;28;20437;-66
2022/01/13 01:37:43;;;;;;;55.40;27.83;;;;;;;;;;5073167;28;20507;-67
2022/01/13 01:40:12;;;;;;;51.53;27.00;;;;;;;;;;5073212;28;20450;-66
2022/01/13 01:42:38;;;;;;;48.27;25.77;;;;;;;;;;5073000;28;20477;-66
2022/01/13 01:45:05;;;;;;;57.13;28.07;;;;;;;;;;5073077;28;20434;-66
2022/01/13 01:47:31;;;;;;;60.17;27.30;;;;;;;;;;5073088;28;20437;-67
2022/01/13 01:49:58;;;;;;;53.60;26.17;;;;;;;;;;5072833;28;20438;-66
2022/01/13 01:52:25;;;;;;;52.00;27.03;;;;;;;;;;5072901;28;20433;-67
2022/01/13 01:54:52;;;;;;;56.03;26.67;;;;;;;;;;5072757;28;20545;-66
2022/01/13 01:57:20;;;;;;;52.97;28.23;;;;;;;;;;5072898;28;20438;-66
2022/01/13 01:59:46;;;;;;;53.97;27.93;;;;;;;;;;5072770;28;20491;-67
2022/01/13 02:02:14;;;;;;;50.17;26.40;;;;;;;;;;5072506;28;20430;-67
2022/01/13 02:04:40;;;;;;;49.13;26.60;;;;;;;;;;5072699;28;20426;-65
2022/01/13 02:07:07;;;;;;;52.30;26.43;;;;;;;;;;5072679;28;20438;-66
2022/01/13 02:09:37;;;;;;;57.60;28.70;;;;;;;;;;5072902;28;20442;-66
2022/01/13 02:12:07;;;;;;;50.17;24.97;;;;;;;;;;5072345;28;20534;-66
2022/01/13 02:14:47;;;;;;;52.13;26.80;;;;;;;;;;5072571;28;20430;-66
2022/01/13 02:17:21;;;;;;;54.67;26.87;;;;;;;;;;5072495;28;20529;-65
2022/01/13 02:19:47;;;;;;;50.00;25.93;;;;;;;;;;5072524;28;20426;-67
2022/01/13 02:22:14;;;;;;;52.60;26.90;;;;;;;;;;5072383;28;20446;-65
2022/01/13 02:24:40;;;;;;;56.57;27.23;;;;;;;;;;5072113;28;20955;-66
2022/01/13 02:27:07;;;;;;;60.33;27.47;;;;;;;;;;5072362;28;20438;-66
2022/01/13 02:29:33;;;;;;;59.90;27.43;;;;;;;;;;5072421;28;20446;-67
2022/01/13 02:32:00;;;;;;;59.53;27.43;;;;;;;;;;5072163;28;20438;-67
2022/01/13 02:34:26;;;;;;;49.33;26.87;;;;;;;;;;5072231;28;20444;-67
2022/01/13 02:36:53;;;;;;;55.87;29.00;;;;;;;;;;5071789;28;20441;-66
2022/01/13 02:39:22;;;;;;;52.00;25.77;;;;;;;;;;5072197;28;20877;-67
2022/01/13 02:41:48;;;;;;;50.03;26.33;;;;;;;;;;5072232;28;20461;-65
2022/01/13 02:44:17;;;;;;;54.53;25.87;;;;;;;;;;5072026;28;20965;-66
2022/01/13 02:47:04;;;;;;;51.33;25.33;;;;;;;;;;5072039;28;20206;-66
2022/01/13 02:49:29;;;;;;;53.80;26.47;;;;;;;;;;5071941;28;20441;-65
2022/01/13 02:51:55;;;;;;;48.73;24.80;;;;;;;;;;5071931;28;20519;-66
2022/01/13 02:54:22;;;;;;;47.33;25.27;;;;;;;;;;5071803;28;20254;-66
2022/01/13 02:56:48;;;;;;;50.27;25.13;;;;;;;;;;5071948;28;20200;-65
2022/01/13 02:59:14;;;;;;;54.57;24.80;;;;;;;;;;5072168;28;20452;-66
2022/01/13 03:01:41;;;;;;;52.30;26.40;;;;;;;;;;5071832;28;20429;-66
2022/01/13 03:04:08;;;;;;;48.00;23.97;;;;;;;;;;5071694;28;20477;-66
2022/01/13 03:06:36;;;;;;;54.83;25.37;;;;;;;;;;5071919;28;20426;-66
2022/01/13 03:09:04;;;;;;;50.73;25.57;;;;;;;;;;5071835;28;20445;-65
2022/01/13 03:11:37;;;;;;;56.43;24.70;;;;;;;;;;5071867;28;20751;-66
2022/01/13 03:14:03;;;;;;;48.27;24.10;;;;;;;;;;5071827;28;21002;-66
2022/01/13 03:16:30;;;;;;;53.40;25.40;;;;;;;;;;5071797;28;20422;-66
2022/01/13 03:18:56;;;;;;;49.90;25.40;;;;;;;;;;5071671;28;20688;-66
2022/01/13 03:21:22;;;;;;;53.37;25.00;;;;;;;;;;5071775;28;20462;-65
2022/01/13 03:23:48;;;;;;;55.23;25.93;;;;;;;;;;5071635;28;20732;-64
2022/01/13 03:26:14;;;;;;;54.13;25.83;;;;;;;;;;5071794;28;20507;-64
2022/01/13 03:28:51;;;;;;;62.10;25.60;;;;;;;;;;5071618;28;20928;-66
2022/01/13 03:31:18;;;;;;;56.20;26.33;;;;;;;;;;5071599;28;20966;-66
2022/01/13 03:33:44;;;;;;;54.10;25.03;;;;;;;;;;5071572;28;20437;-67
2022/01/13 03:36:10;;;;;;;50.50;24.03;;;;;;;;;;5071542;28;20681;-64
2022/01/13 03:38:36;;;;;;;56.60;25.07;;;;;;;;;;5071269;28;20670;-65
2022/01/13 03:41:02;;;;;;;51.93;25.90;;;;;;;;;;5071507;28;20446;-65
2022/01/13 03:43:28;;;;;;;49.93;24.43;;;;;;;;;;5071323;28;20477;-65
2022/01/13 03:45:55;;;;;;;49.37;24.97;;;;;;;;;;5071309;28;20775;-65
2022/01/13 03:48:22;;;;;;;57.90;25.87;;;;;;;;;;5071585;28;20940;-66
2022/01/13 03:50:48;;;;;;;53.23;25.43;;;;;;;;;;5075566;28;20486;-66
2022/01/13 03:53:47;;;;;;;50.70;23.87;;;;;;;;;;5075211;28;20964;-65
2022/01/13 03:56:41;;;;;;;62.30;25.97;;;;;;;;;;5013172;28;20237;-66
2022/01/13 03:59:35;;;;;;;57.17;23.70;;;;;;;;;;5013075;28;20599;-66
2022/01/13 04:02:06;;;;;;;55.77;25.13;;;;;;;;;;5063881;28;20449;-65
2022/01/13 04:04:33;;;;;;;49.27;24.10;;;;;;;;;;5075011;28;20531;-65
2022/01/13 04:07:10;;;;;;;51.10;23.90;;;;;;;;;;5074785;28;20480;-66
2022/01/13 04:10:03;;;;;;;56.03;24.60;;;;;;;;;;5074881;28;20461;-65
2022/01/13 04:12:29;;;;;;;51.73;24.43;;;;;;;;;;5074755;28;20878;-66
2022/01/13 04:14:59;;;;;;;53.30;25.00;;;;;;;;;;5074684;28;21051;-65
2022/01/13 04:17:27;;;;;;;49.60;23.63;;;;;;;;;;5074794;28;20433;-66
2022/01/13 04:19:53;;;;;;;56.23;25.47;;;;;;;;;;5074712;28;20438;-66
2022/01/13 04:22:20;;;;;;;52.53;24.27;;;;;;;;;;5074740;28;20461;-66
2022/01/13 04:24:48;;;;;;;55.33;24.93;;;;;;;;;;5074738;28;20845;-66
2022/01/13 04:27:21;;;;;;;51.17;23.83;;;;;;;;;;5074648;28;20449;-65
2022/01/13 04:29:49;;;;;;;55.93;25.43;;;;;;;;;;5074550;28;20429;-66
2022/01/13 04:32:15;;;;;;;49.97;25.03;;;;;;;;;;5074342;28;20461;-66
2022/01/13 04:34:42;;;;;;;52.63;24.90;;;;;;;;;;5074313;28;20440;-65
2022/01/13 04:37:08;;;;;;;54.87;24.90;;;;;;;;;;5074192;28;20461;-65
2022/01/13 04:39:35;;;;;;;48.23;23.83;;;;;;;;;;5074560;28;20457;-65
2022/01/13 04:42:01;;;;;;;49.80;24.63;;;;;;;;;;5074370;28;20283;-66
2022/01/13 04:44:27;;;;;;;50.87;24.17;;;;;;;;;;5074155;28;20825;-66
2022/01/13 04:46:54;;;;;;;54.13;25.30;;;;;;;;;;5074026;28;20418;-65
2022/01/13 04:49:20;;;;;;;53.60;23.83;;;;;;;;;;5074183;28;20711;-67
2022/01/13 04:51:49;;;;;;;51.47;23.23;;;;;;;;;;5074363;28;20434;-65
2022/01/13 04:54:15;;;;;;;52.47;23.67;;;;;;;;;;5073998;28;20457;-65
2022/01/13 04:59:17;;;;;;;44.63;22.87;;;;;;;;;;5074115;28;20433;-65
2022/01/13 05:01:43;;;;;;;51.43;22.40;;;;;;;;;;5073943;28;20519;-66
2022/01/13 05:04:09;;;;;;;48.53;23.17;;;;;;;;;;5073792;28;20482;-64
2022/01/13 05:06:35;;;;;;;48.10;23.63;;;;;;;;;;5073999;28;20195;-65
2022/01/13 05:09:02;;;;;;;46.00;23.80;;;;;;;;;;5073890;28;20775;-65
2022/01/13 05:11:28;;;;;;;48.20;22.70;;;;;;;;;;5073675;28;20808;-64
2022/01/13 05:13:54;;;;;;;43.67;21.37;;;;;;;;;;5073830;28;20426;-66
2022/01/13 05:16:25;;;;;;;45.47;21.43;;;;;;;;;;5073570;28;20438;-65
2022/01/13 05:21:26;;;;;;;40.77;20.63;;;;;;;;;;5072950;28;20438;-66
2022/01/13 05:23:53;;;;;;;39.80;20.23;;;;;;;;;;5073484;28;20469;-66
2022/01/13 05:26:21;;;;;;;44.03;21.63;;;;;;;;;;5073578;28;20863;-65
2022/01/13 05:28:47;;;;;;;40.90;20.93;;;;;;;;;;5073453;28;20441;-65
2022/01/13 05:31:13;;;;;;;38.77;20.47;;;;;;;;;;5073185;28;20430;-65
2022/01/13 05:33:40;;;;;;;42.00;20.87;;;;;;;;;;5073264;28;21175;-65
2022/01/13 05:36:06;;;;;;;40.73;20.43;;;;;;;;;;5073143;28;20436;-65
2022/01/13 05:38:32;;;;;;;42.27;20.27;;;;;;;;;;5073391;28;20438;-65
2022/01/13 05:40:58;;;;;;;39.00;20.03;;;;;;;;;;5073127;28;20963;-65
2022/01/13 05:43:25;;;;;;;42.13;19.83;;;;;;;;;;5073252;28;20482;-65
2022/01/13 05:45:51;;;;;;;40.73;20.47;;;;;;;;;;5073093;28;20524;-65
2022/01/13 05:48:18;;;;;;;39.43;20.03;;;;;;;;;;5073025;28;20962;-64
2022/01/13 05:50:44;;;;;;;44.23;20.93;;;;;;;;;;5072925;28;20434;-65
2022/01/13 05:53:10;;;;;;;41.57;21.67;;;;;;;;;;5072857;28;20835;-63
2022/01/13 05:55:36;;;;;;;39.17;21.33;;;;;;;;;;5072955;28;20456;-63
2022/01/13 05:58:02;;;;;;;42.07;19.90;;;;;;;;;;5072900;28;20442;-65
2022/01/13 06:00:30;;;;;;;42.27;21.73;;;;;;;;;;5072789;28;20430;-65
2022/01/13 06:02:56;;;;;;;41.37;19.97;;;;;;;;;;5072688;28;20473;-65
2022/01/13 06:05:22;;;;;;;38.40;20.13;;;;;;;;;;5072685;28;20473;-66
2022/01/13 06:07:48;;;;;;;41.63;20.27;;;;;;;;;;5072839;28;20839;-66
2022/01/13 06:10:18;;;;;;;48.47;22.07;;;;;;;;;;5072245;28;20429;-67
2022/01/13 06:12:45;;;;;;;41.30;20.43;;;;;;;;;;5071690;28;20995;-65
2022/01/13 06:15:12;;;;;;;37.83;19.50;;;;;;;;;;5072227;28;20484;-63
2022/01/13 06:17:40;;;;;;;35.97;18.67;;;;;;;;;;5072076;28;20434;-65
2022/01/13 06:23:28;;;;;;;35.43;18.80;;;;;;;;;;5040188;28;20477;-64
2022/01/13 06:25:55;;;;;;;36.80;18.17;;;;;;;;;;5072223;28;20437;-65
2022/01/13 06:28:21;;;;;;;34.27;18.43;;;;;;;;;;5071966;28;20195;-64
2022/01/13 06:30:47;;;;;;;30.83;17.20;;;;;;;;;;5072252;28;20430;-65
2022/01/13 06:33:14;;;;;;;37.53;18.40;;;;;;;;;;5072039;28;20604;-64
2022/01/13 06:35:41;;;;;;;35.40;18.10;;;;;;;;;;5072099;28;20226;-64
2022/01/13 06:38:07;;;;;;;34.73;17.93;;;;;;;;;;5071840;28;20803;-65
2022/01/13 06:40:33;;;;;;;33.90;17.90;;;;;;;;;;5072262;28;20434;-65
2022/01/13 06:42:59;;;;;;;35.53;17.80;;;;;;;;;;5072017;28;20462;-66
2022/01/13 06:45:25;;;;;;;35.83;17.70;;;;;;;;;;5071811;28;20509;-65
2022/01/13 06:47:51;;;;;;;35.67;18.47;;;;;;;;;;5071977;28;20194;-65
2022/01/13 06:50:18;;;;;;;33.60;16.27;;;;;;;;;;5071905;28;20430;-64
2022/01/13 06:52:46;;;;;;;33.77;16.87;;;;;;;;;;5071902;28;20529;-66
2022/01/13 06:55:12;;;;;;;34.53;17.93;;;;;;;;;;5071768;28;20452;-65
2022/01/13 06:57:38;;;;;;;32.53;16.33;;;;;;;;;;5071831;28;20520;-65
2022/01/13 07:00:04;;;;;;;34.17;17.00;;;;;;;;;;5071541;28;20282;-65
2022/01/13 07:02:32;;;;;;;34.53;16.97;;;;;;;;;;5071747;28;20533;-64
2022/01/13 07:04:58;;;;;;;31.20;16.37;;;;;;;;;;5071738;28;20462;-65
2022/01/13 07:07:26;;;;;;;33.37;18.20;;;;;;;;;;5071687;28;20477;-65
2022/01/13 07:09:52;;;;;;;37.53;17.63;;;;;;;;;;5071738;28;20213;-65
2022/01/13 07:12:17;;;;;;;33.67;17.87;;;;;;;;;;5071453;28;20991;-64
2022/01/13 07:14:44;;;;;;;39.67;17.63;;;;;;;;;;5071673;28;20506;-64
2022/01/13 07:17:10;;;;;;;36.83;18.50;;;;;;;;;;5071406;28;20196;-63
2022/01/13 07:19:36;;;;;;;30.70;16.70;;;;;;;;;;5071729;28;20441;-65
2022/01/13 07:22:02;;;;;;;34.40;17.87;;;;;;;;;;5071714;28;20488;-64
2022/01/13 07:24:29;;;;;;;34.30;17.47;;;;;;;;;;5073547;28;20235;-64
2022/01/13 07:26:55;;;;;;;32.60;18.33;;;;;;;;;;5075669;28;20460;-65
2022/01/13 07:29:21;;;;;;;38.27;18.50;;;;;;;;;;5075314;28;20437;-65
2022/01/13 07:31:48;;;;;;;37.57;18.67;;;;;;;;;;5075587;28;20242;-65
2022/01/13 07:34:14;;;;;;;32.53;17.73;;;;;;;;;;5075533;28;20462;-64
2022/01/13 07:36:40;;;;;;;33.87;17.73;;;;;;;;;;5075445;28;20500;-66
2022/01/13 07:39:07;;;;;;;32.57;17.00;;;;;;;;;;5075426;28;20205;-66
2022/01/13 07:41:37;;;;;;;34.00;17.30;;;;;;;;;;5075904;28;20422;-64
2022/01/13 07:44:03;;;;;;;30.80;16.73;;;;;;;;;;5075479;28;20501;-65
2022/01/13 07:46:29;;;;;;;33.27;17.63;;;;;;;;;;5075244;28;20479;-65
2022/01/13 07:48:55;;;;;;;35.80;17.80;;;;;;;;;;5075398;28;20776;-66
2022/01/13 07:51:21;;;;;;;37.30;18.13;;;;;;;;;;5075422;28;20434;-64
2022/01/13 07:53:47;;;;;;;35.73;17.93;;;;;;;;;;5075234;28;20215;-65
2022/01/13 07:56:13;;;;;;;30.23;17.67;;;;;;;;;;5075112;28;20487;-65
2022/01/13 07:58:44;;;;;;;41.67;18.47;;;;;;;;;;5075060;28;20230;-66
2022/01/13 08:01:10;;;;;;;36.27;17.40;;;;;;;;;;5074889;28;20274;-66
2022/01/13 08:03:36;;;;;;;35.57;17.37;;;;;;;;;;5074756;28;20865;-65
2022/01/13 08:06:04;;;;;;;36.47;18.03;;;;;;;;;;5075069;28;20462;-65
2022/01/13 08:08:30;;;;;;;33.97;17.53;;;;;;;;;;5074997;28;20430;-67
2022/01/13 08:10:56;;;;;;;31.83;16.70;;;;;;;;;;5074824;28;20440;-66
2022/01/13 08:13:22;;;;;;;29.83;16.77;;;;;;;;;;5074854;28;20430;-66
2022/01/13 08:15:52;;;;;;;35.20;17.80;;;;;;;;;;5074939;28;20687;-66
2022/01/13 08:21:03;;;;;;;29.87;16.27;;;;;;;;;;5074929;28;20440;-64
2022/01/13 08:23:29;;;;;;;29.17;15.50;;;;;;;;;;5074578;28;20903;-66
2022/01/13 08:25:55;;;;;;;27.53;16.20;;;;;;;;;;5074780;28;20430;-66
2022/01/13 08:28:21;;;;;;;29.73;16.03;;;;;;;;;;5074568;28;20531;-67
2022/01/13 08:30:48;;;;;;;34.03;17.73;;;;;;;;;;5074729;28;20434;-66
2022/01/13 08:33:17;;;;;;;29.20;17.00;;;;;;;;;;5074483;28;20492;-66
2022/01/13 08:35:44;;;;;;;32.07;17.53;;;;;;;;;;5074027;28;20441;-65
2022/01/13 08:38:16;;;;;;;32.63;17.90;;;;;;;;;;5074334;28;20532;-60
2022/01/13 08:40:42;;;;;;;29.00;15.63;;;;;;;;;;5074258;28;20513;-62
2022/01/13 08:43:08;;;;;;;31.00;16.30;;;;;;;;;;5074045;28;20565;-60
2022/01/13 08:45:34;;;;;;;30.33;16.53;;;;;;;;;;5074438;28;20192;-60
2022/01/13 08:48:00;;;;;;;32.93;17.37;;;;;;;;;;5074175;28;20200;-68
2022/01/13 08:50:27;;;;;;;32.50;17.33;;;;;;;;;;5073881;28;20514;-68
2022/01/13 08:52:53;;;;;;;31.33;16.93;;;;;;;;;;5074288;28;20250;-62
2022/01/13 08:55:19;;;;;;;27.50;15.33;;;;;;;;;;5074267;28;20469;-62
2022/01/13 08:57:45;;;;;;;23.50;13.80;;;;;;;;;;5074251;28;20191;-62
2022/01/13 09:00:12;;;;;;;30.23;15.33;;;;;;;;;;5069201;28;20864;-63
2022/01/13 09:02:38;;;;;;;28.80;15.87;;;;;;;;;;5056322;28;20304;-62
2022/01/13 09:05:05;;;;;;;26.53;14.60;;;;;;;;;;5053831;28;20445;-64
2022/01/13 09:07:32;;;;;;;25.70;14.80;;;;;;;;;;5053761;28;20289;-62
2022/01/13 09:09:58;;;;;;;25.30;14.07;;;;;;;;;;5053962;28;20450;-63
2022/01/13 09:12:24;;;;;;;26.53;16.03;;;;;;;;;;5053508;28;20888;-64
2022/01/13 09:14:57;;;;;;;34.50;18.03;;;;;;;;;;5053401;28;20493;-62
2022/01/13 09:17:24;;;;;;;34.50;20.00;;;;;;;;;;5053672;28;20442;-63
2022/01/13 09:19:51;;;;;;;37.60;18.67;;;;;;;;;;5053624;28;21014;-64
2022/01/13 09:22:17;;;;;;;35.23;20.43;;;;;;;;;;5053402;28;20463;-65
2022/01/13 09:24:44;;;;;;;31.73;17.23;;;;;;;;;;5053457;28;20557;-61
2022/01/13 09:27:10;;;;;;;29.60;17.53;;;;;;;;;;5053246;28;20442;-63
2022/01/13 09:29:36;;;;;;;34.33;17.30;;;;;;;;;;5053362;28;20442;-64
2022/01/13 09:32:02;;;;;;;32.50;18.47;;;;;;;;;;5053493;28;20434;-64
2022/01/13 09:34:29;;;;;;;34.10;17.23;;;;;;;;;;5053314;28;20212;-64
2022/01/13 09:36:54;;;;;;;31.73;18.53;;;;;;;;;;5053269;28;20429;-63
2022/01/13 09:39:20;;;;;;;27.53;17.13;;;;;;;;;;5053260;28;20506;-62
2022/01/13 09:41:49;;;;;;;29.43;17.83;;;;;;;;;;5053071;28;20725;-63
2022/01/13 09:44:15;;;;;;;26.30;16.17;;;;;;;;;;5052693;28;20274;-61
2022/01/13 09:46:41;;;;;;;33.17;19.00;;;;;;;;;;5051346;28;20515;-64
2022/01/13 09:49:08;;;;;;;34.07;18.53;;;;;;;;;;5053005;28;20435;-63
2022/01/13 09:51:35;;;;;;;34.63;18.80;;;;;;;;;;5052961;28;20824;-64
2022/01/13 09:54:01;;;;;;;28.53;17.83;;;;;;;;;;5053022;28;20463;-64
2022/01/13 09:56:27;;;;;;;36.20;18.20;;;;;;;;;;5052754;28;20469;-62
2022/01/13 09:58:55;;;;;;;30.47;18.17;;;;;;;;;;5052747;28;20470;-62
2022/01/13 10:01:21;;;;;;;31.27;17.10;;;;;;;;;;5052544;28;20654;-65
2022/01/13 10:03:47;;;;;;;32.53;17.70;;;;;;;;;;5052999;28;20486;-64
2022/01/13 10:06:14;;;;;;;32.03;16.80;;;;;;;;;;5052744;28;20522;-63
2022/01/13 10:08:41;;;;;;;32.13;17.93;;;;;;;;;;5052679;28;20435;-64
2022/01/13 10:11:22;;;;;;;29.47;17.20;;;;;;;;;;5050723;28;20961;-64
2022/01/13 10:14:00;;;;;;;29.27;17.33;;;;;;;;;;5052676;28;20992;-62
2022/01/13 10:16:28;;;;;;;31.73;17.00;;;;;;;;;;5052406;28;20453;-64
2022/01/13 10:18:54;;;;;;;31.50;16.83;;;;;;;;;;5052529;28;20928;-64
2022/01/13 10:21:20;;;;;;;34.17;16.77;;;;;;;;;;5052279;28;20449;-66
2022/01/13 10:24:03;;;;;;;28.40;17.50;;;;;;;;;;5052332;28;20224;-64
2022/01/13 10:26:30;;;;;;;28.77;16.40;;;;;;;;;;5052276;28;20469;-64
2022/01/13 10:28:56;;;;;;;28.70;17.07;;;;;;;;;;5052144;28;20484;-64
2022/01/13 10:31:42;;;;;;;27.57;15.73;;;;;;;;;;5052127;28;21010;-62
2022/01/13 10:34:17;;;;;;;27.97;16.17;;;;;;;;;;5051845;28;20867;-63
2022/01/13 10:36:58;;;;;;;23.07;15.27;;;;;;;;;;5052194;28;20431;-63
2022/01/13 10:39:43;;;;;;;27.53;15.87;;;;;;;;;;5052081;28;20442;-62
2022/01/13 10:42:44;;;;;;;27.53;15.63;;;;;;;;;;5050067;28;20430;-62
2022/01/13 10:45:01;;;;;;;28.30;16.40;;;;;;;;;;5051917;28;20997;-62
2022/01/13 10:47:28;;;;;;;29.17;17.13;;;;;;;;;;5051911;28;20518;-62
2022/01/13 10:50:02;;;;;;;28.57;15.97;;;;;;;;;;5051987;28;20434;-64
2022/01/13 10:52:28;;;;;;;31.53;17.63;;;;;;;;;;5051850;28;20921;-63
2022/01/13 10:54:59;;;;;;;30.07;18.27;;;;;;;;;;5051993;28;20450;-65
2022/01/13 10:57:26;;;;;;;36.67;18.53;;;;;;;;;;5051728;28;20510;-63
2022/01/13 10:59:53;;;;;;;28.60;17.47;;;;;;;;;;5050237;28;20440;-62
2022/01/13 11:02:19;;;;;;;31.40;18.17;;;;;;;;;;5051652;28;20434;-59
2022/01/13 11:04:45;;;;;;;33.27;18.20;;;;;;;;;;5051833;28;20532;-60
2022/01/13 11:07:17;;;;;;;32.03;17.57;;;;;;;;;;5052070;28;20491;-64
2022/01/13 11:09:43;;;;;;;36.13;18.53;;;;;;;;;;5052056;28;20955;-64
2022/01/13 11:12:10;;;;;;;36.50;19.60;;;;;;;;;;5051784;28;20471;-64
2022/01/13 11:14:42;;;;;;;33.77;18.83;;;;;;;;;;5051746;28;20850;-64
2022/01/13 11:17:10;;;;;;;37.67;18.97;;;;;;;;;;5051747;28;20933;-63
2022/01/13 11:19:36;;;;;;;34.40;18.60;;;;;;;;;;5051610;28;20445;-64
2022/01/13 11:22:02;;;;;;;33.87;19.03;;;;;;;;;;5051890;28;20435;-64
2022/01/13 11:24:29;;;;;;;32.77;18.43;;;;;;;;;;5051714;28;20479;-64
2022/01/13 11:26:56;;;;;;;34.40;18.60;;;;;;;;;;5051848;28;20426;-65
2022/01/13 11:29:23;;;;;;;35.23;19.57;;;;;;;;;;5051731;28;20439;-63
2022/01/13 11:31:50;;;;;;;33.07;18.93;;;;;;;;;;5051749;28;20497;-64
2022/01/13 11:34:17;;;;;;;34.10;18.60;;;;;;;;;;5051800;28;20473;-63
2022/01/13 11:36:43;;;;;;;38.63;20.70;;;;;;;;;;5051250;28;20430;-62
2022/01/13 11:39:10;;;;;;;32.27;19.23;;;;;;;;;;5051649;28;20488;-64
2022/01/13 11:41:58;;;;;;;34.90;20.17;;;;;;;;;;5049558;28;20438;-64
2022/01/13 11:44:24;;;;;;;33.53;18.67;;;;;;;;;;5050989;28;20481;-64
2022/01/13 11:46:50;;;;;;;32.70;18.73;;;;;;;;;;5051481;28;20445;-64
2022/01/13 11:49:36;;;;;;;34.07;18.47;;;;;;;;;;5051377;28;20937;-64
2022/01/13 11:52:12;;;;;;;31.97;18.50;;;;;;;;;;5051420;28;20508;-63
2022/01/13 11:54:39;;;;;;;33.97;20.17;;;;;;;;;;5051001;28;20458;-63
2022/01/13 11:57:14;;;;;;;34.27;18.47;;;;;;;;;;5051523;28;20422;-63
2022/01/13 11:59:40;;;;;;;36.33;18.97;;;;;;;;;;5050895;28;20976;-64
2022/01/13 12:02:30;;;;;;;38.23;20.73;;;;;;;;;;5050963;28;20435;-63
2022/01/13 12:05:00;;;;;;;36.87;18.97;;;;;;;;;;5035777;28;20502;-63
2022/01/13 12:07:36;;;;;;;31.47;18.30;;;;;;;;;;5051065;28;20435;-63
2022/01/13 12:10:02;;;;;;;34.67;18.27;;;;;;;;;;5052342;28;20528;-64
2022/01/13 12:12:31;;;;;;;31.83;18.10;;;;;;;;;;5054438;28;20572;-63
2022/01/13 12:15:12;;;;;;;31.60;17.30;;;;;;;;;;5054544;28;20457;-63
2022/01/13 12:17:43;;;;;;;31.83;17.77;;;;;;;;;;5054559;28;20430;-63
2022/01/13 12:20:20;;;;;;;33.40;16.90;;;;;;;;;;5054851;28;20427;-63
2022/01/13 12:22:57;;;;;;;32.43;18.13;;;;;;;;;;5054805;28;20454;-63
2022/01/13 12:25:31;;;;;;;35.40;18.40;;;;;;;;;;5054971;28;20446;-63
2022/01/13 12:27:59;;;;;;;35.10;19.10;;;;;;;;;;5054821;28;20435;-65
2022/01/13 12:30:27;;;;;;;31.87;17.70;;;;;;;;;;5054758;28;20439;-63
2022/01/13 12:32:54;;;;;;;34.17;19.03;;;;;;;;;;5054930;28;20526;-62
2022/01/13 12:35:32;;;;;;;32.03;18.97;;;;;;;;;;5054698;28;20439;-62
2022/01/13 12:37:59;;;;;;;36.00;19.60;;;;;;;;;;5054798;28;20465;-63
2022/01/13 12:40:25;;;;;;;39.87;20.13;;;;;;;;;;5054511;28;20874;-64
2022/01/13 12:42:53;;;;;;;42.10;20.53;;;;;;;;;;5054318;28;20469;-68
2022/01/13 12:45:28;;;;;;;47.17;21.33;;;;;;;;;;5054368;28;20474;-69
2022/01/13 12:47:54;;;;;;;43.20;20.53;;;;;;;;;;5054479;28;20441;-68
2022/01/13 12:50:22;;;;;;;41.03;20.77;;;;;;;;;;5054509;28;20519;-67
2022/01/13 12:52:48;;;;;;;42.17;21.57;;;;;;;;;;5054209;28;20500;-67
2022/01/13 12:55:14;;;;;;;44.13;21.83;;;;;;;;;;5054430;28;20473;-68
2022/01/13 12:57:44;;;;;;;41.47;22.23;;;;;;;;;;5054212;28;20446;-67
2022/01/13 13:00:11;;;;;;;40.30;21.30;;;;;;;;;;5054172;28;20493;-67
2022/01/13 13:02:38;;;;;;;43.77;21.67;;;;;;;;;;5053963;28;20518;-66
2022/01/13 13:05:05;;;;;;;42.50;21.23;;;;;;;;;;5053925;28;20475;-67
2022/01/13 13:07:31;;;;;;;39.77;22.20;;;;;;;;;;5053968;28;20439;-67
2022/01/13 13:10:03;;;;;;;40.67;20.70;;;;;;;;;;5054194;28;20853;-68
2022/01/13 13:12:31;;;;;;;42.90;21.97;;;;;;;;;;5053815;28;20262;-67
2022/01/13 13:17:45;;;;;;;43.10;21.57;;;;;;;;;;5053858;28;20421;-68
2022/01/13 13:20:23;;;;;;;42.33;21.93;;;;;;;;;;5053921;28;20461;-68
2022/01/13 13:22:49;;;;;;;44.03;20.47;;;;;;;;;;5053782;28;20430;-70
2022/01/13 13:25:25;;;;;;;40.07;21.67;;;;;;;;;;5053739;28;20514;-68
2022/01/13 13:27:51;;;;;;;40.10;21.57;;;;;;;;;;5053650;28;20460;-67
2022/01/13 13:30:17;;;;;;;42.97;20.80;;;;;;;;;;5053728;28;20514;-67
2022/01/13 13:32:48;;;;;;;40.97;21.90;;;;;;;;;;5053514;28;20575;-66
2022/01/13 13:35:15;;;;;;;39.90;19.77;;;;;;;;;;5053540;28;20209;-67
2022/01/13 13:37:43;;;;;;;38.60;19.67;;;;;;;;;;5053426;28;20443;-67
2022/01/13 13:40:19;;;;;;;42.03;20.70;;;;;;;;;;5053505;28;20438;-67
2022/01/13 13:42:45;;;;;;;42.80;22.13;;;;;;;;;;5053428;28;20484;-67
2022/01/13 13:45:12;;;;;;;41.97;20.33;;;;;;;;;;5053162;28;20478;-67
2022/01/13 13:47:37;;;;;;;44.30;22.00;;;;;;;;;;5053274;28;20207;-67
2022/01/13 13:50:06;;;;;;;35.20;20.10;;;;;;;;;;5053347;28;20443;-67
2022/01/13 13:52:32;;;;;;;34.63;18.67;;;;;;;;;;5053341;28;20192;-67
2022/01/13 13:55:00;;;;;;;36.73;19.63;;;;;;;;;;5052797;28;20816;-68
2022/01/13 13:57:34;;;;;;;36.90;18.97;;;;;;;;;;5052635;28;20652;-67
2022/01/13 14:00:01;;;;;;;37.97;19.30;;;;;;;;;;5053040;28;20430;-66
2022/01/13 14:02:30;;;;;;;40.53;21.07;;;;;;;;;;5052903;28;20446;-66
2022/01/13 14:04:58;;;;;;;37.53;20.23;;;;;;;;;;5052776;28;20485;-66
2022/01/13 14:07:26;;;;;;;37.23;19.47;;;;;;;;;;5052606;28;20500;-67
2022/01/13 14:09:53;;;;;;;41.27;19.73;;;;;;;;;;5052537;28;20427;-67
2022/01/13 14:12:25;;;;;;;31.53;17.77;;;;;;;;;;5052463;28;20466;-66
2022/01/13 14:14:51;;;;;;;31.17;18.73;;;;;;;;;;5052054;28;20435;-68
2022/01/13 14:17:28;;;;;;;32.77;19.40;;;;;;;;;;5052702;28;20442;-66
2022/01/13 14:20:01;;;;;;;35.67;18.83;;;;;;;;;;5052351;28;20199;-67
2022/01/13 14:22:29;;;;;;;36.53;20.37;;;;;;;;;;5052596;28;20821;-67
2022/01/13 14:24:57;;;;;;;33.77;18.77;;;;;;;;;;5052579;28;20486;-67
2022/01/13 14:27:24;;;;;;;39.40;20.50;;;;;;;;;;5052384;28;20439;-67
2022/01/13 14:29:51;;;;;;;34.13;20.67;;;;;;;;;;5052396;28;20445;-66
2022/01/13 14:32:19;;;;;;;34.73;19.30;;;;;;;;;;5051887;28;20882;-69
2022/01/13 14:34:45;;;;;;;39.73;21.10;;;;;;;;;;5052507;28;20465;-66
2022/01/13 14:37:11;;;;;;;39.07;20.80;;;;;;;;;;5052349;28;20455;-67
2022/01/13 14:39:40;;;;;;;37.60;20.40;;;;;;;;;;5052392;28;20987;-66
2022/01/13 14:42:10;;;;;;;33.97;18.73;;;;;;;;;;5052160;28;20208;-67
2022/01/13 14:44:37;;;;;;;35.23;20.03;;;;;;;;;;5052258;28;20474;-66
2022/01/13 14:47:07;;;;;;;31.90;17.93;;;;;;;;;;5052381;28;20525;-66